Time;durP1;ratioP1;P1;durP2;ratioP2;P2;SDS_P1;SDS_P2;PMS_P1;PMS_P2;Temp;Humidity;BMP_temperature;BMP_pressure;BME280_temperature;BME280_humidity;BME280_pressure;Samples;Min_cycle;Max_cycle;Signal;HPM_P1;HPM_P2
2022/02/02 00:00:34;;;;;;;6.47;1.73;;;17.00;67.40;;;;;;4991987;28;20101;-77
2022/02/02 00:03:06;;;;;;;5.63;1.50;;;16.90;67.40;;;;;;4991967;28;20868;-77
2022/02/02 00:08:00;;;;;;;4.93;1.35;;;16.90;67.50;;;;;;4992009;28;20034;-78
2022/02/02 00:13:26;;;;;;;4.40;1.60;;;16.80;67.40;;;;;;4991933;28;20022;-78
2022/02/02 00:16:05;;;;;;;3.28;1.27;;;16.80;67.50;;;;;;4994749;28;20050;-78
2022/02/02 00:21:07;;;;;;;4.20;1.30;;;16.80;67.60;;;;;;4995117;28;20038;-77
2022/02/02 00:23:41;;;;;;;4.80;1.38;;;16.80;67.70;;;;;;4995152;28;20022;-78
2022/02/02 00:26:16;;;;;;;4.57;1.40;;;16.70;67.60;;;;;;4995679;28;20033;-80
2022/02/02 00:28:46;;;;;;;3.95;1.17;;;16.70;67.70;;;;;;4995402;28;20018;-77
2022/02/02 00:31:19;;;;;;;3.20;1.25;;;16.70;67.70;;;;;;4995285;28;20062;-79
2022/02/02 00:33:53;;;;;;;4.22;1.42;;;16.70;67.70;;;;;;4994912;28;20018;-79
2022/02/02 00:36:23;;;;;;;3.72;1.23;;;16.70;67.70;;;;;;4995063;28;20022;-80
2022/02/02 00:38:49;;;;;;;4.82;1.90;;;16.60;67.70;;;;;;4994395;28;20122;-79
2022/02/02 00:41:15;;;;;;;3.25;1.17;;;16.70;67.80;;;;;;4994715;28;20531;-77
2022/02/02 00:43:44;;;;;;;3.78;1.50;;;16.60;67.80;;;;;;4995452;28;20117;-78
2022/02/02 00:46:10;;;;;;;3.80;1.20;;;16.60;67.90;;;;;;4995344;28;20018;-77
2022/02/02 00:48:36;;;;;;;4.07;1.63;;;16.60;68.00;;;;;;4994837;28;20057;-77
2022/02/02 00:51:02;;;;;;;4.38;1.63;;;16.60;68.10;;;;;;4994259;28;20118;-77
2022/02/02 00:53:28;;;;;;;5.57;1.48;;;16.50;68.00;;;;;;4994899;28;20027;-77
2022/02/02 00:55:55;;;;;;;3.60;1.25;;;16.50;68.10;;;;;;4994794;28;20049;-77
2022/02/02 00:58:23;;;;;;;6.18;1.50;;;16.50;68.00;;;;;;4994708;28;20026;-77
2022/02/02 01:00:49;;;;;;;5.80;1.35;;;16.50;68.10;;;;;;4993375;28;20022;-77
2022/02/02 01:03:15;;;;;;;5.18;1.45;;;16.50;68.10;;;;;;4994460;28;20048;-78
2022/02/02 01:05:41;;;;;;;3.83;1.50;;;16.50;68.90;;;;;;4994913;28;20026;-75
2022/02/02 01:18:36;;;;;;;2.78;1.10;;;16.40;68.20;;;;;;4975032;28;20413;-78
2022/02/02 01:21:16;;;;;;;4.22;1.60;;;16.40;68.20;;;;;;4991538;28;20443;-77
2022/02/02 01:29:21;;;;;;;5.30;1.52;;;16.40;68.30;;;;;;4990471;28;20037;-79
2022/02/02 01:31:46;;;;;;;4.35;1.00;;;16.30;68.30;;;;;;4994057;28;20398;-79
2022/02/02 01:34:12;;;;;;;4.60;1.40;;;16.30;68.30;;;;;;4994313;28;20026;-78
2022/02/02 01:36:40;;;;;;;4.40;1.20;;;16.30;68.40;;;;;;4994366;28;20034;-79
2022/02/02 01:39:07;;;;;;;4.00;1.20;;;16.30;68.40;;;;;;4993887;28;20022;-78
2022/02/02 01:41:33;;;;;;;5.18;1.27;;;16.30;68.40;;;;;;4993880;28;20030;-79
2022/02/02 01:44:12;;;;;;;4.13;1.00;;;16.30;68.50;;;;;;4993764;28;20019;-79
2022/02/02 01:46:38;;;;;;;4.45;1.80;;;16.20;68.40;;;;;;4994014;28;20026;-78
2022/02/02 01:52:38;;;;;;;5.43;1.33;;;16.20;68.50;;;;;;4993732;28;20113;-78
2022/02/02 01:57:13;;;;;;;3.45;1.27;;;16.20;68.60;;;;;;4993848;28;20465;-78
2022/02/02 01:59:39;;;;;;;5.72;1.65;;;16.20;68.60;;;;;;4993828;28;20117;-78
2022/02/02 02:02:09;;;;;;;3.67;1.42;;;16.20;68.60;;;;;;4993430;28;20025;-78
2022/02/02 02:04:36;;;;;;;4.55;1.30;;;16.20;68.60;;;;;;4993448;28;20467;-77
2022/02/02 02:07:03;;;;;;;3.00;1.42;;;16.20;68.70;;;;;;4993398;28;20097;-79
2022/02/02 02:09:29;;;;;;;5.47;1.25;;;16.20;68.60;;;;;;4993242;28;20037;-77
2022/02/02 02:12:01;;;;;;;3.50;1.30;;;16.20;68.70;;;;;;4993282;28;20062;-78
2022/02/02 02:17:05;;;;;;;3.05;1.00;;;16.20;68.70;;;;;;4993020;28;20049;-77
2022/02/02 02:19:32;;;;;;;3.75;1.17;;;16.10;68.60;;;;;;4992665;28;20069;-78
2022/02/02 02:21:57;;;;;;;2.75;1.00;;;16.20;68.70;;;;;;4992889;28;20080;-77
2022/02/02 02:24:23;;;;;;;5.43;1.58;;;16.10;68.70;;;;;;4992307;28;20026;-77
2022/02/02 02:26:49;;;;;;;3.17;0.98;;;16.10;68.70;;;;;;4993067;28;20029;-77
2022/02/02 02:29:49;;;;;;;3.35;1.13;;;16.10;68.70;;;;;;4975529;28;20034;-76
2022/02/02 02:35:46;;;;;;;4.68;1.10;;;16.10;68.90;;;;;;4979779;28;20026;-77
2022/02/02 02:38:46;;;;;;;3.40;0.98;;;16.10;68.90;;;;;;4992502;28;20023;-77
2022/02/02 02:57:44;;;;;;;2.88;1.10;;;16.00;69.00;;;;;;4952833;28;20039;-77
2022/02/02 03:30:18;;;;;;;1.73;0.68;;;15.90;69.10;;;;;;4992117;28;20057;-77
2022/02/02 03:49:33;;;;;;;2.75;0.80;;;15.90;69.20;;;;;;4993934;28;20369;-79
2022/02/02 03:58:10;;;;;;;2.55;0.90;;;15.80;69.00;;;;;;4995729;28;20113;-77
2022/02/02 04:10:23;;;;;;;3.05;1.00;;;15.80;69.20;;;;;;4961104;28;20042;-78
2022/02/02 04:12:58;;;;;;;3.67;1.00;;;15.80;69.30;;;;;;4995530;28;20076;-78
2022/02/02 04:56:43;;;;;;;1.92;0.70;;;15.70;69.40;;;;;;4995257;28;20070;-77
2022/02/02 05:06:27;;;;;;;2.30;0.70;;;15.70;69.60;;;;;;4994985;28;20066;-77
2022/02/02 05:29:08;;;;;;;1.70;0.68;;;15.70;69.40;;;;;;4978627;28;20030;-79
2022/02/02 05:41:11;;;;;;;2.05;0.73;;;15.80;69.40;;;;;;4995062;28;20044;-78
2022/02/02 05:44:53;;;;;;;3.88;0.60;;;15.80;69.10;;;;;;4953094;29;20042;-76
2022/02/02 05:52:34;;;;;;;1.58;0.60;;;15.90;69.00;;;;;;4952995;29;19907;-78
2022/02/02 05:55:00;;;;;;;2.53;0.82;;;15.90;69.80;;;;;;4958893;28;20042;-77
2022/02/02 05:57:27;;;;;;;2.10;0.77;;;15.90;69.00;;;;;;4993317;28;20395;-76
2022/02/02 05:59:56;;;;;;;1.85;0.63;;;15.90;69.00;;;;;;4993150;28;20479;-77
2022/02/02 06:02:38;;;;;;;1.70;0.77;;;15.90;69.00;;;;;;4992560;28;20041;-78
2022/02/02 06:05:05;;;;;;;1.25;0.57;;;15.90;69.00;;;;;;4993345;28;20022;-79
2022/02/02 06:07:37;;;;;;;1.77;0.65;;;15.90;69.00;;;;;;4981860;28;20488;-78
2022/02/02 06:10:04;;;;;;;2.67;0.80;;;15.90;69.00;;;;;;4975707;28;20041;-79
2022/02/02 06:12:31;;;;;;;2.40;0.75;;;15.90;69.00;;;;;;4991972;28;20034;-76
2022/02/02 06:14:59;;;;;;;1.50;0.63;;;15.90;69.00;;;;;;4993184;28;20034;-78
2022/02/02 06:17:28;;;;;;;2.45;0.90;;;16.00;69.10;;;;;;4992959;28;20065;-77
2022/02/02 06:19:53;;;;;;;1.75;0.73;;;16.00;69.10;;;;;;4992398;28;20398;-77
2022/02/02 06:22:21;;;;;;;3.50;0.88;;;16.00;69.10;;;;;;4992371;28;20022;-78
2022/02/02 06:24:57;;;;;;;3.15;1.10;;;16.00;69.10;;;;;;4993442;28;20058;-76
2022/02/02 06:27:25;;;;;;;2.15;1.00;;;16.00;69.10;;;;;;4993186;28;20035;-76
2022/02/02 06:30:04;;;;;;;1.13;0.52;;;16.00;69.10;;;;;;4991857;28;20046;-77
2022/02/02 06:32:37;;;;;;;1.95;0.73;;;16.00;69.10;;;;;;4993007;28;20022;-78
2022/02/02 06:35:05;;;;;;;2.47;0.57;;;16.00;69.10;;;;;;4974743;28;20050;-76
2022/02/02 06:37:31;;;;;;;2.90;0.70;;;16.00;69.00;;;;;;4989949;28;20042;-77
2022/02/02 06:39:57;;;;;;;1.75;0.82;;;16.00;69.00;;;;;;4974940;28;20034;-76
2022/02/02 06:42:23;;;;;;;2.42;0.80;;;16.00;69.00;;;;;;4974996;28;20036;-77
2022/02/02 06:44:50;;;;;;;1.48;0.73;;;16.00;69.00;;;;;;4991148;28;20036;-78
2022/02/02 06:47:17;;;;;;;3.03;0.93;;;16.00;68.90;;;;;;4992261;28;20380;-77
2022/02/02 06:49:45;;;;;;;2.22;0.70;;;16.00;68.90;;;;;;4991973;28;20389;-77
2022/02/02 06:52:20;;;;;;;1.30;0.75;;;16.00;68.90;;;;;;4992276;28;20085;-78
2022/02/02 06:55:28;;;;;;;1.67;0.70;;;16.00;69.00;;;;;;4974074;28;20038;-79
2022/02/02 06:58:29;;;;;;;1.33;0.70;;;16.10;69.00;;;;;;4987252;28;20057;-78
2022/02/02 07:06:57;;;;;;;2.75;0.80;;;16.10;68.90;;;;;;4953948;28;20039;-77
2022/02/02 07:09:48;;;;;;;1.38;0.50;;;16.20;69.10;;;;;;4974882;28;20517;-77
2022/02/02 07:12:28;;;;;;;1.50;0.85;;;16.20;69.20;;;;;;4990465;28;20046;-77
2022/02/02 07:17:42;;;;;;;2.53;0.90;;;16.30;69.30;;;;;;4992285;28;20117;-76
2022/02/02 07:28:14;;;;;;;2.45;0.70;;;16.50;69.50;;;;;;4992504;28;20053;-76
2022/02/02 07:30:59;;;;;;;5.63;0.75;;;16.50;69.60;;;;;;4990623;28;20121;-76
2022/02/02 07:33:32;;;;;;;1.98;0.90;;;16.60;70.00;;;;;;4991300;28;20021;-77
2022/02/02 07:36:12;;;;;;;2.35;0.95;;;16.60;70.00;;;;;;4991321;28;20401;-76
2022/02/02 07:38:56;;;;;;;2.45;0.63;;;16.70;70.30;;;;;;4979255;28;20512;-76
2022/02/02 07:41:30;;;;;;;3.42;0.88;;;16.80;70.30;;;;;;4974708;28;20019;-77
2022/02/02 07:44:03;;;;;;;4.43;0.98;;;16.80;70.50;;;;;;4991631;28;20034;-77
2022/02/02 07:46:29;;;;;;;3.67;0.88;;;16.80;70.10;;;;;;4990327;28;20033;-78
2022/02/02 07:48:55;;;;;;;2.75;0.85;;;16.90;70.50;;;;;;4991636;28;20550;-79
2022/02/02 07:51:24;;;;;;;2.47;0.95;;;16.90;70.30;;;;;;4992098;28;20034;-78
2022/02/02 07:53:53;;;;;;;2.70;0.75;;;16.90;70.90;;;;;;4991400;28;20018;-77
2022/02/02 07:56:27;;;;;;;2.75;0.80;;;16.90;70.10;;;;;;4992299;28;20031;-78
2022/02/02 07:59:10;;;;;;;3.92;0.90;;;17.00;70.00;;;;;;4991665;28;20482;-77
2022/02/02 08:01:36;;;;;;;2.53;0.93;;;17.00;70.00;;;;;;4991436;28;20034;-77
2022/02/02 08:04:02;;;;;;;4.50;1.08;;;17.00;70.40;;;;;;4991818;28;20027;-77
2022/02/02 08:06:29;;;;;;;4.93;1.00;;;17.00;69.70;;;;;;4991970;28;20026;-77
2022/02/02 08:08:54;;;;;;;3.30;0.77;;;17.00;69.70;;;;;;4991416;28;20065;-77
2022/02/02 08:11:30;;;;;;;3.38;0.80;;;17.00;69.70;;;;;;4974490;28;20078;-76
2022/02/02 08:13:59;;;;;;;;;;;17.00;69.70;;;;;;4991384;28;20022;-77
2022/02/02 08:16:25;;;;;;;3.53;0.93;;;17.00;69.70;;;;;;4974043;28;20027;-76
2022/02/02 08:18:53;;;;;;;4.93;0.88;;;17.00;69.60;;;;;;4991759;28;20030;-77
2022/02/02 08:21:18;;;;;;;3.17;0.82;;;17.00;69.40;;;;;;4992208;28;20471;-77
2022/02/02 08:23:45;;;;;;;3.33;0.80;;;17.00;69.40;;;;;;4991356;28;20061;-77
2022/02/02 08:26:16;;;;;;;1.65;0.90;;;17.00;69.40;;;;;;4991548;28;20073;-78
2022/02/02 08:28:45;;;;;;;2.60;0.90;;;17.00;69.40;;;;;;4989263;28;20034;-76
2022/02/02 08:31:12;;;;;;;3.78;1.10;;;17.00;69.30;;;;;;4973755;28;20045;-76
2022/02/02 08:33:41;;;;;;;2.75;0.73;;;17.00;69.30;;;;;;4991124;28;20382;-76
2022/02/02 08:36:15;;;;;;;1.42;0.80;;;17.00;69.30;;;;;;4993227;28;20022;-76
2022/02/02 08:43:58;;;;;;;2.03;1.00;;;17.00;69.30;;;;;;4994697;28;20114;-77
2022/02/02 08:46:36;;;;;;;2.65;1.02;;;17.00;69.30;;;;;;4993970;28;20038;-77
2022/02/02 08:49:06;;;;;;;3.53;0.73;;;17.00;69.20;;;;;;4994836;28;20018;-77
2022/02/02 08:51:38;;;;;;;2.08;0.85;;;17.00;69.20;;;;;;4994120;28;20045;-77
2022/02/02 08:54:18;;;;;;;2.58;0.90;;;17.00;69.10;;;;;;4994196;28;20022;-77
2022/02/02 09:01:49;;;;;;;4.47;1.30;;;16.90;69.00;;;;;;4993702;28;20026;-77
2022/02/02 09:06:59;;;;;;;2.97;0.90;;;16.80;69.00;;;;;;4994513;28;20037;-76
2022/02/02 09:09:50;;;;;;;2.17;0.88;;;16.80;69.20;;;;;;4994450;28;20023;-76
2022/02/02 09:20:58;;;;;;;1.73;0.80;;;16.80;69.10;;;;;;4994442;28;20093;-76
2022/02/02 09:34:10;;;;;;;1.85;0.90;;;16.70;69.30;;;;;;4992595;28;20037;-76
2022/02/02 09:36:40;;;;;;;2.47;0.80;;;16.70;69.30;;;;;;4994098;28;20105;-76
2022/02/02 09:39:17;;;;;;;2.08;0.60;;;16.70;69.30;;;;;;4992747;28;20037;-76
2022/02/02 09:41:51;;;;;;;4.32;0.82;;;16.60;69.30;;;;;;4992769;28;20416;-76
2022/02/02 09:44:22;;;;;;;2.47;0.80;;;16.60;69.30;;;;;;4993176;28;20122;-76
2022/02/02 09:50:11;;;;;;;2.45;0.88;;;16.70;69.20;;;;;;4993877;28;20027;-76
2022/02/02 09:52:16;;;;;;;;;;;16.80;69.10;;;;;;4980119;28;20041;-77
2022/02/02 09:55:07;;;;;;;2.63;1.05;;;16.70;69.00;;;;;;4989768;28;19992;-76
2022/02/02 10:03:23;;;;;;;2.08;1.20;;;16.70;69.00;;;;;;4991909;28;20105;-76
2022/02/02 10:05:48;;;;;;;2.63;1.00;;;16.70;69.10;;;;;;4991296;28;20417;-76
2022/02/02 10:11:26;;;;;;;2.08;0.95;;;16.70;69.10;;;;;;4993614;28;20046;-77
2022/02/02 10:14:51;;;;;;;1.95;0.70;;;16.70;69.30;;;;;;4995050;28;20022;-76
2022/02/02 10:16:45;;;;;;;2.42;0.80;;;16.60;69.30;;;;;;4988630;28;20026;-76
2022/02/02 10:19:21;;;;;;;1.15;0.60;;;16.70;69.50;;;;;;4993355;28;20030;-76
2022/02/02 10:21:47;;;;;;;1.95;0.82;;;16.60;69.40;;;;;;4991686;28;20022;-76
2022/02/02 10:24:13;;;;;;;2.88;1.13;;;16.60;69.40;;;;;;4976785;28;20038;-76
2022/02/02 10:26:49;;;;;;;1.45;0.70;;;16.60;69.50;;;;;;4993121;28;20073;-76
2022/02/02 10:29:16;;;;;;;2.70;0.88;;;16.60;69.50;;;;;;4992637;28;20108;-76
2022/02/02 10:31:50;;;;;;;1.38;0.60;;;16.50;69.60;;;;;;4992993;28;20030;-76
2022/02/02 10:34:21;;;;;;;2.75;1.10;;;16.50;69.70;;;;;;4991622;28;20034;-76
2022/02/02 10:37:26;;;;;;;1.95;0.98;;;16.50;69.70;;;;;;4975320;28;20027;-76
2022/02/02 10:39:51;;;;;;;4.40;1.00;;;16.50;69.80;;;;;;4992870;28;20096;-75
2022/02/02 10:42:38;;;;;;;1.40;0.77;;;16.50;69.80;;;;;;4992749;28;20030;-76
2022/02/02 10:45:20;;;;;;;3.40;0.80;;;16.50;69.80;;;;;;4992887;28;20099;-76
2022/02/02 10:47:49;;;;;;;2.42;0.80;;;16.50;70.00;;;;;;4992351;28;20034;-76
2022/02/02 10:50:25;;;;;;;2.00;0.80;;;16.50;70.00;;;;;;4992656;28;20092;-76
2022/02/02 11:06:38;;;;;;;4.80;1.00;;;16.40;70.20;;;;;;4992441;28;20038;-77
2022/02/02 11:09:06;;;;;;;2.92;0.65;;;16.40;70.20;;;;;;4992428;28;20266;-76
2022/02/02 11:11:32;;;;;;;2.00;0.85;;;16.40;70.20;;;;;;4991964;28;20045;-77
2022/02/02 11:14:03;;;;;;;1.75;0.80;;;16.40;70.60;;;;;;4992370;28;20022;-77
2022/02/02 11:16:34;;;;;;;2.58;0.77;;;16.40;71.60;;;;;;4992356;28;20030;-77
2022/02/02 11:19:02;;;;;;;1.95;0.60;;;16.40;73.10;;;;;;4991413;28;20023;-76
2022/02/02 11:21:33;;;;;;;1.70;0.70;;;16.40;74.10;;;;;;4991957;28;20026;-77
2022/02/02 11:23:59;;;;;;;1.75;1.05;;;16.40;74.80;;;;;;4992162;28;20042;-77
2022/02/02 11:26:42;;;;;;;2.00;0.88;;;16.50;75.30;;;;;;4991881;28;20034;-76
2022/02/02 11:29:08;;;;;;;8.60;1.23;;;16.50;75.30;;;;;;4991680;28;20037;-77
2022/02/02 11:31:34;;;;;;;74.63;20.40;;;16.40;75.90;;;;;;4975906;28;20109;-76
2022/02/02 11:34:01;;;;;;;30.27;9.70;;;16.50;77.20;;;;;;4969220;28;20032;-76
2022/02/02 11:36:36;;;;;;;20.50;5.57;;;16.50;81.60;;;;;;4990652;28;20486;-76
2022/02/02 11:39:07;;;;;;;16.15;4.70;;;16.70;77.50;;;;;;4990911;28;20014;-76
2022/02/02 11:41:44;;;;;;;12.35;3.45;;;16.70;76.60;;;;;;4992232;28;20022;-77
2022/02/02 11:44:19;;;;;;;16.63;3.33;;;16.90;76.10;;;;;;4991461;28;20073;-75
2022/02/02 11:49:51;;;;;;;7.72;2.85;;;17.10;76.00;;;;;;4990707;28;20379;-76
2022/02/02 11:52:32;;;;;;;10.77;2.30;;;17.20;75.90;;;;;;4989547;28;20026;-75
2022/02/02 11:54:58;;;;;;;10.45;3.30;;;17.20;77.00;;;;;;4988750;28;20019;-75
2022/02/02 11:57:33;;;;;;;9.85;2.33;;;17.30;76.90;;;;;;4991880;28;20135;-75
2022/02/02 12:00:28;;;;;;;9.77;2.22;;;17.40;77.40;;;;;;4985990;28;20034;-75
2022/02/02 12:06:00;;;;;;;4.97;1.90;;;17.40;76.40;;;;;;4991188;28;20031;-75
2022/02/02 12:20:39;;;;;;;7.07;1.40;;;17.90;75.40;;;;;;4945996;29;20019;-75
2022/02/02 12:49:37;;;;;;;7.57;1.98;;;18.40;71.60;;;;;;4996432;28;20513;-75
2022/02/02 13:00:12;;;;;;;9.10;1.40;;;18.50;71.10;;;;;;4994379;28;20031;-74
2022/02/02 13:02:40;;;;;;;8.82;1.58;;;18.60;70.70;;;;;;4994712;28;20030;-75
2022/02/02 13:05:08;;;;;;;4.95;1.30;;;18.60;70.30;;;;;;4994640;28;20064;-75
2022/02/02 13:07:35;;;;;;;4.53;1.25;;;18.60;70.20;;;;;;4994624;28;20498;-76
2022/02/02 13:10:04;;;;;;;5.90;1.52;;;18.60;70.00;;;;;;4994406;28;20549;-74
2022/02/02 13:12:45;;;;;;;4.53;1.15;;;18.60;69.90;;;;;;4977101;28;20042;-75
2022/02/02 13:18:02;;;;;;;8.65;1.50;;;18.50;69.60;;;;;;4994591;28;20034;-75
2022/02/02 13:20:46;;;;;;;3.35;1.42;;;18.50;69.60;;;;;;4994673;28;20422;-74
2022/02/02 13:23:25;;;;;;;2.97;1.10;;;18.50;69.60;;;;;;4993588;28;20049;-78
2022/02/02 13:26:00;;;;;;;4.28;0.93;;;18.40;69.50;;;;;;4994340;28;20501;-76
2022/02/02 13:28:36;;;;;;;3.35;1.00;;;18.40;69.50;;;;;;4994523;28;20101;-75
2022/02/02 13:31:02;;;;;;;5.28;1.27;;;18.40;69.50;;;;;;4976532;28;20043;-77
2022/02/02 13:33:36;;;;;;;3.42;0.98;;;18.30;69.40;;;;;;4993118;28;20026;-77
2022/02/02 13:42:19;;;;;;;2.70;0.80;;;18.20;69.30;;;;;;4973964;28;20026;-74
2022/02/02 13:42:40;;;;;;;2.60;1.00;;;18.20;69.30;;;;;;4994318;28;20030;-76
2022/02/02 13:48:31;;;;;;;1.80;0.85;;;18.20;69.30;;;;;;4992899;28;20042;-75
2022/02/02 14:31:26;;;;;;;2.47;0.98;;;17.60;68.90;;;;;;4956824;28;20051;-75
2022/02/02 14:33:55;;;;;;;3.50;0.65;;;17.60;69.00;;;;;;4974591;28;20032;-76
2022/02/02 14:36:24;;;;;;;1.88;0.70;;;17.60;69.10;;;;;;4993002;28;20034;-75
2022/02/02 14:41:34;;;;;;;0.90;0.60;;;17.50;69.10;;;;;;4992153;28;20375;-75
2022/02/02 14:46:51;;;;;;;2.13;0.75;;;17.50;69.90;;;;;;4992725;28;20505;-77
2022/02/02 14:49:27;;;;;;;1.70;0.70;;;17.40;70.30;;;;;;4992374;28;20026;-76
2022/02/02 15:29:20;;;;;;;1.03;0.87;;;17.00;71.20;;;;;;4992249;28;20439;-75
2022/02/02 15:31:47;;;;;;;1.30;0.60;;;17.00;71.10;;;;;;4992163;28;20319;-76
2022/02/02 15:34:19;;;;;;;1.30;0.50;;;17.00;71.30;;;;;;4974721;28;20026;-76
2022/02/02 15:39:21;;;;;;;2.83;1.03;;;16.90;71.30;;;;;;4991902;28;20122;-76
2022/02/02 15:55:22;;;;;;;1.77;0.98;;;16.80;71.70;;;;;;4996064;28;20036;-76
2022/02/02 16:05:35;;;;;;;2.00;0.95;;;16.70;72.00;;;;;;4995185;28;20030;-77
2022/02/02 16:08:05;;;;;;;1.90;0.90;;;16.70;72.00;;;;;;4978353;28;20454;-80
2022/02/02 16:18:48;;;;;;;2.33;1.02;;;16.60;72.80;;;;;;4995701;28;20502;-77
2022/02/02 16:32:47;;;;;;;2.47;1.10;;;17.20;71.70;;;;;;4995784;28;20109;-81
2022/02/02 16:37:33;;;;;;;2.42;1.10;;;17.40;70.60;;;;;;4995723;28;20030;-82
2022/02/02 16:40:00;;;;;;;2.92;0.90;;;17.50;70.50;;;;;;4995787;28;20050;-81
2022/02/02 16:45:12;;;;;;;5.50;1.10;;;17.60;70.60;;;;;;4995362;28;20060;-82
2022/02/02 16:47:38;;;;;;;3.28;1.00;;;17.70;70.60;;;;;;4995154;28;20030;-79
2022/02/02 16:50:05;;;;;;;2.75;1.00;;;17.70;70.60;;;;;;4977095;28;20117;-77
2022/02/02 16:52:33;;;;;;;1.80;1.00;;;17.70;70.70;;;;;;4990933;28;20117;-76
2022/02/02 16:55:04;;;;;;;2.55;1.08;;;17.70;70.60;;;;;;4994909;28;20105;-78
2022/02/02 16:57:47;;;;;;;2.03;1.00;;;17.70;70.50;;;;;;4993986;28;20829;-77
2022/02/02 17:30:27;;;;;;;3.55;1.38;;;18.50;69.20;;;;;;4994301;28;20042;-79
2022/02/02 17:35:26;;;;;;;5.10;0.88;;;18.60;69.10;;;;;;4994538;28;20033;-79
2022/02/02 17:38:10;;;;;;;1.90;0.70;;;18.60;68.90;;;;;;4995531;28;20030;-78
2022/02/02 18:18:46;;;;;;;1.27;0.73;;;19.40;67.80;;;;;;4993398;28;20117;-78
2022/02/02 18:21:07;;;;;;;1.20;0.73;;;19.40;67.40;;;;;;4993225;28;20379;-78
2022/02/02 18:28:41;;;;;;;2.40;0.82;;;19.40;67.20;;;;;;4993245;28;20034;-77
2022/02/02 18:31:22;;;;;;;2.50;1.08;;;19.50;67.20;;;;;;4992969;28;20150;-77
2022/02/02 18:47:06;;;;;;;7.70;1.05;;;19.60;66.80;;;;;;4992945;28;20483;-77
2022/02/02 18:52:54;;;;;;;4.13;0.88;;;19.70;67.20;;;;;;4958913;28;20518;-77
2022/02/02 20:03:25;;;;;;;7.32;4.93;;;19.90;66.40;;;;;;4991828;28;20057;-76
2022/02/02 20:05:46;;;;;;;7.93;3.88;;;19.90;66.60;;;;;;4991380;28;20026;-80
2022/02/02 20:08:24;;;;;;;9.25;4.72;;;19.90;66.70;;;;;;4991568;28;20077;-77
2022/02/02 20:11:05;;;;;;;8.80;5.50;;;19.90;66.90;;;;;;4991577;28;20038;-78
2022/02/02 20:13:34;;;;;;;7.70;4.82;;;20.00;66.90;;;;;;4991479;28;20026;-77
2022/02/02 20:16:00;;;;;;;9.27;5.22;;;19.90;67.00;;;;;;4991127;28;20096;-77
2022/02/02 20:18:28;;;;;;;9.43;4.90;;;20.00;67.20;;;;;;4991868;28;20110;-78
2022/02/02 20:20:55;;;;;;;8.07;5.85;;;20.00;67.10;;;;;;4991822;28;20483;-76
2022/02/02 20:23:21;;;;;;;10.82;6.68;;;20.00;67.10;;;;;;4981727;28;20506;-76
2022/02/02 20:25:51;;;;;;;10.77;6.57;;;20.00;67.30;;;;;;4990161;28;20031;-78
2022/02/02 20:28:17;;;;;;;9.98;6.63;;;20.00;67.40;;;;;;4972196;28;20019;-79
2022/02/02 20:30:43;;;;;;;9.95;6.32;;;19.90;67.40;;;;;;4990506;28;20042;-79
2022/02/02 20:33:08;;;;;;;10.68;6.80;;;19.90;67.80;;;;;;4994487;28;20406;-79
2022/02/02 20:35:35;;;;;;;14.10;7.93;;;19.80;67.60;;;;;;4994653;28;20034;-75
2022/02/02 20:38:00;;;;;;;11.02;6.35;;;19.80;67.80;;;;;;4993911;28;20022;-76
2022/02/02 20:40:27;;;;;;;14.15;6.22;;;19.70;67.90;;;;;;4994996;28;20037;-78
2022/02/02 20:43:10;;;;;;;11.48;6.05;;;19.70;68.00;;;;;;4994008;28;20061;-76
2022/02/02 21:04:54;;;;;;;12.07;6.05;;;19.50;70.60;;;;;;4992941;28;20041;-77
2022/02/02 21:10:26;;;;;;;10.27;4.88;;;19.50;70.60;;;;;;4924299;29;20127;-76
2022/02/02 21:15:38;;;;;;;13.15;4.90;;;19.50;70.50;;;;;;4992074;28;20061;-76
2022/02/02 21:18:14;;;;;;;8.80;4.60;;;19.40;70.20;;;;;;4997307;28;20023;-76
2022/02/02 21:21:06;;;;;;;9.15;4.75;;;19.30;70.20;;;;;;4992875;28;20174;-77
2022/02/02 21:24:16;;;;;;;7.82;4.30;;;19.30;70.20;;;;;;4989603;28;20046;-76
2022/02/02 21:26:47;;;;;;;6.95;3.88;;;19.20;70.10;;;;;;4992485;28;20058;-77
2022/02/02 21:29:13;;;;;;;9.60;4.15;;;19.20;70.10;;;;;;4990142;28;20034;-77
2022/02/02 21:31:39;;;;;;;8.55;3.95;;;19.20;70.10;;;;;;4985936;28;20042;-76
2022/02/02 21:34:04;;;;;;;6.32;3.40;;;19.10;70.10;;;;;;4994428;28;20101;-77
2022/02/02 21:36:31;;;;;;;9.15;3.47;;;19.10;70.60;;;;;;4993277;28;20494;-78
2022/02/02 21:39:04;;;;;;;9.20;3.33;;;19.00;70.00;;;;;;4992421;28;20128;-77
2022/02/02 21:41:35;;;;;;;8.27;3.38;;;19.00;69.80;;;;;;4989288;28;20068;-76
2022/02/02 21:44:02;;;;;;;8.10;3.55;;;18.90;69.60;;;;;;4974417;28;20547;-77
2022/02/02 21:46:28;;;;;;;10.93;4.20;;;18.90;69.50;;;;;;4975307;28;20065;-77
2022/02/02 21:48:55;;;;;;;7.00;3.78;;;18.80;69.40;;;;;;4974569;28;20019;-76
2022/02/02 21:51:30;;;;;;;5.90;3.00;;;18.80;69.40;;;;;;4992945;28;20030;-77
2022/02/02 21:53:56;;;;;;;6.72;3.60;;;18.70;69.30;;;;;;4992217;28;20398;-77
2022/02/02 21:56:23;;;;;;;7.63;3.00;;;18.70;69.30;;;;;;4992499;28;20034;-77
2022/02/02 21:58:49;;;;;;;6.65;2.90;;;18.60;69.40;;;;;;4993396;28;20034;-75
2022/02/02 22:01:16;;;;;;;4.95;2.70;;;18.60;69.40;;;;;;4993535;28;20029;-77
2022/02/02 22:03:41;;;;;;;7.22;3.00;;;18.50;69.40;;;;;;4993453;28;20027;-76
2022/02/02 22:06:07;;;;;;;6.03;2.83;;;18.50;69.60;;;;;;4993828;28;20466;-77
2022/02/02 22:08:33;;;;;;;5.68;2.85;;;18.40;69.80;;;;;;4993435;28;20101;-76
2022/02/02 22:10:59;;;;;;;6.97;2.58;;;18.40;69.60;;;;;;4993244;28;20121;-77
2022/02/02 22:13:34;;;;;;;4.80;2.22;;;18.40;69.90;;;;;;4993378;28;20546;-78
2022/02/02 22:16:06;;;;;;;6.43;2.70;;;18.30;69.30;;;;;;4992892;28;20026;-78
2022/02/02 22:18:33;;;;;;;5.97;2.15;;;18.30;69.40;;;;;;4992827;28;20026;-76
2022/02/02 22:20:59;;;;;;;7.28;2.53;;;18.30;69.50;;;;;;4991846;28;20018;-78
2022/02/02 22:23:24;;;;;;;4.43;2.38;;;18.20;69.60;;;;;;4993038;28;20474;-78
2022/02/02 22:25:50;;;;;;;4.78;2.00;;;18.20;69.60;;;;;;4992902;28;20026;-77
2022/02/02 22:28:16;;;;;;;5.15;2.17;;;18.10;69.60;;;;;;4992877;28;20165;-77
2022/02/02 22:30:41;;;;;;;6.03;2.28;;;18.10;69.70;;;;;;4992687;28;20390;-77
2022/02/02 22:33:07;;;;;;;4.40;1.95;;;18.10;69.80;;;;;;4993008;28;20035;-77
2022/02/02 22:35:33;;;;;;;4.18;2.10;;;18.00;69.70;;;;;;4993089;28;20034;-78
2022/02/02 22:37:59;;;;;;;4.38;1.65;;;18.00;69.80;;;;;;4992762;28;20564;-77
2022/02/02 22:40:26;;;;;;;2.67;1.52;;;17.90;69.80;;;;;;4992812;28;20112;-77
2022/02/02 22:42:52;;;;;;;5.85;2.05;;;17.90;69.90;;;;;;4992740;28;20072;-77
2022/02/02 22:45:18;;;;;;;4.40;1.83;;;17.90;69.90;;;;;;4992790;28;20030;-79
2022/02/02 22:47:46;;;;;;;4.68;1.92;;;17.80;69.90;;;;;;4992476;28;20026;-77
2022/02/02 22:50:13;;;;;;;4.65;1.60;;;17.80;69.90;;;;;;4991475;28;20046;-77
2022/02/02 22:52:41;;;;;;;4.03;1.85;;;17.80;69.80;;;;;;4976233;28;20454;-77
2022/02/02 22:55:12;;;;;;;4.07;2.08;;;17.70;69.70;;;;;;4992301;28;20026;-77
2022/02/02 22:57:37;;;;;;;3.60;1.65;;;17.70;69.80;;;;;;4992898;28;20034;-77
2022/02/02 23:00:08;;;;;;;4.25;1.25;;;17.60;69.80;;;;;;4991995;28;20026;-77
2022/02/02 23:05:03;;;;;;;4.00;1.73;;;17.60;69.90;;;;;;4991870;28;20077;-79
2022/02/02 23:07:28;;;;;;;2.85;1.50;;;17.50;69.80;;;;;;4992636;28;20118;-78
2022/02/02 23:09:56;;;;;;;3.75;1.55;;;17.50;69.90;;;;;;4992343;28;20091;-77
2022/02/02 23:12:24;;;;;;;5.45;2.08;;;17.50;70.10;;;;;;4992470;28;20033;-77
2022/02/02 23:14:50;;;;;;;3.45;1.30;;;17.40;70.00;;;;;;4975067;28;20061;-76
2022/02/02 23:17:18;;;;;;;3.17;1.40;;;17.40;70.00;;;;;;4992518;28;20023;-78
2022/02/02 23:19:47;;;;;;;2.95;1.35;;;17.40;70.00;;;;;;4991843;28;20109;-76
2022/02/02 23:22:14;;;;;;;2.50;1.20;;;17.40;70.00;;;;;;4992132;28;20026;-78
2022/02/02 23:24:44;;;;;;;3.72;1.20;;;17.30;69.90;;;;;;4975172;28;20383;-77
2022/02/02 23:27:11;;;;;;;2.92;1.40;;;17.30;69.90;;;;;;4992696;28;20014;-77
2022/02/02 23:29:45;;;;;;;4.22;1.20;;;17.20;70.00;;;;;;4991712;28;20037;-76
2022/02/02 23:32:11;;;;;;;3.45;1.25;;;17.20;70.00;;;;;;4992617;28;20034;-77
2022/02/02 23:34:37;;;;;;;2.90;1.05;;;17.20;70.10;;;;;;4975051;28;20023;-77
2022/02/02 23:37:03;;;;;;;3.15;1.63;;;17.10;70.00;;;;;;4990980;28;20026;-78
2022/02/02 23:39:29;;;;;;;3.97;1.30;;;17.10;70.10;;;;;;4991394;28;20034;-77
2022/02/02 23:44:53;;;;;;;3.10;1.30;;;17.00;70.10;;;;;;4959446;28;20398;-76
2022/02/02 23:47:22;;;;;;;3.53;1.27;;;17.00;70.10;;;;;;4992107;28;20118;-76
2022/02/02 23:49:54;;;;;;;2.95;1.00;;;17.00;70.20;;;;;;4991546;28;20084;-76
2022/02/02 23:52:53;;;;;;;4.35;1.10;;;16.90;70.20;;;;;;4992230;28;20124;-77
2022/02/02 23:55:27;;;;;;;3.80;1.13;;;16.90;70.10;;;;;;4990849;28;20069;-77
